sensor_id;sensor_type;location;lat;lon;timestamp;pressure;altitude;pressure_sealevel;temperature;humidity
10470;BME280;5282;47.052;15.458;2024-01-30T00:01:09;99505.16;;;-2.69;100.00
10470;BME280;5282;47.052;15.458;2024-01-30T00:03:38;99501.88;;;-2.79;100.00
10470;BME280;5282;47.052;15.458;2024-01-30T00:06:05;99503.94;;;-2.91;100.00
10470;BME280;5282;47.052;15.458;2024-01-30T00:08:32;99507.50;;;-2.94;100.00
10470;BME280;5282;47.052;15.458;2024-01-30T00:10:59;99497.03;;;-2.97;100.00
10470;BME280;5282;47.052;15.458;2024-01-30T00:13:26;99497.88;;;-2.95;100.00
10470;BME280;5282;47.052;15.458;2024-01-30T00:15:54;99497.16;;;-3.03;100.00
10470;BME280;5282;47.052;15.458;2024-01-30T00:18:21;99495.75;;;-3.20;100.00
10470;BME280;5282;47.052;15.458;2024-01-30T00:20:49;99488.88;;;-3.27;100.00
10470;BME280;5282;47.052;15.458;2024-01-30T00:23:16;99491.56;;;-3.29;100.00
10470;BME280;5282;47.052;15.458;2024-01-30T00:25:43;99499.41;;;-3.27;100.00
10470;BME280;5282;47.052;15.458;2024-01-30T00:28:10;99501.41;;;-3.38;100.00
10470;BME280;5282;47.052;15.458;2024-01-30T00:30:37;99501.50;;;-3.43;100.00
10470;BME280;5282;47.052;15.458;2024-01-30T00:33:04;99492.81;;;-3.47;100.00
10470;BME280;5282;47.052;15.458;2024-01-30T00:35:32;99501.00;;;-3.62;100.00
10470;BME280;5282;47.052;15.458;2024-01-30T00:38:00;99501.00;;;-3.62;100.00
10470;BME280;5282;47.052;15.458;2024-01-30T00:40:28;99499.75;;;-3.44;100.00
10470;BME280;5282;47.052;15.458;2024-01-30T00:42:55;99500.88;;;-3.56;100.00
10470;BME280;5282;47.052;15.458;2024-01-30T00:45:24;99506.16;;;-3.56;100.00
10470;BME280;5282;47.052;15.458;2024-01-30T00:47:51;99496.47;;;-3.54;100.00
10470;BME280;5282;47.052;15.458;2024-01-30T00:50:18;99505.13;;;-3.49;100.00
10470;BME280;5282;47.052;15.458;2024-01-30T00:52:45;99494.44;;;-3.39;100.00
10470;BME280;5282;47.052;15.458;2024-01-30T00:55:14;99498.78;;;-3.38;100.00
10470;BME280;5282;47.052;15.458;2024-01-30T00:57:41;99501.28;;;-3.32;100.00
10470;BME280;5282;47.052;15.458;2024-01-30T01:00:08;99502.09;;;-3.29;100.00
10470;BME280;5282;47.052;15.458;2024-01-30T01:02:35;99498.56;;;-3.28;100.00
10470;BME280;5282;47.052;15.458;2024-01-30T01:05:02;99488.75;;;-3.21;100.00
10470;BME280;5282;47.052;15.458;2024-01-30T01:07:28;99491.44;;;-3.22;100.00
10470;BME280;5282;47.052;15.458;2024-01-30T01:09:55;99489.66;;;-3.22;100.00
10470;BME280;5282;47.052;15.458;2024-01-30T01:12:24;99491.72;;;-3.36;100.00
10470;BME280;5282;47.052;15.458;2024-01-30T01:14:51;99489.41;;;-3.52;100.00
10470;BME280;5282;47.052;15.458;2024-01-30T01:17:18;99484.31;;;-3.61;100.00
10470;BME280;5282;47.052;15.458;2024-01-30T01:19:45;99486.19;;;-3.68;100.00
10470;BME280;5282;47.052;15.458;2024-01-30T01:22:12;99486.22;;;-3.69;100.00
10470;BME280;5282;47.052;15.458;2024-01-30T01:24:38;99491.25;;;-3.57;100.00
10470;BME280;5282;47.052;15.458;2024-01-30T01:27:05;99489.31;;;-3.49;100.00
10470;BME280;5282;47.052;15.458;2024-01-30T01:29:34;99478.78;;;-3.47;100.00
10470;BME280;5282;47.052;15.458;2024-01-30T01:32:02;99482.22;;;-3.44;100.00
10470;BME280;5282;47.052;15.458;2024-01-30T01:34:30;99483.31;;;-3.56;100.00
10470;BME280;5282;47.052;15.458;2024-01-30T01:36:57;99480.78;;;-3.60;100.00
10470;BME280;5282;47.052;15.458;2024-01-30T01:39:23;99476.50;;;-3.66;100.00
10470;BME280;5282;47.052;15.458;2024-01-30T01:41:50;99479.28;;;-3.72;100.00
10470;BME280;5282;47.052;15.458;2024-01-30T01:44:17;99475.97;;;-3.83;100.00
10470;BME280;5282;47.052;15.458;2024-01-30T01:46:45;99478.72;;;-3.90;100.00
10470;BME280;5282;47.052;15.458;2024-01-30T01:49:13;99480.31;;;-3.81;100.00
10470;BME280;5282;47.052;15.458;2024-01-30T01:51:41;99481.00;;;-3.73;100.00
10470;BME280;5282;47.052;15.458;2024-01-30T01:54:10;99477.63;;;-3.78;100.00
10470;BME280;5282;47.052;15.458;2024-01-30T01:56:38;99479.41;;;-3.80;100.00
10470;BME280;5282;47.052;15.458;2024-01-30T01:59:08;99481.72;;;-3.63;100.00
10470;BME280;5282;47.052;15.458;2024-01-30T02:01:36;99487.91;;;-3.65;100.00
10470;BME280;5282;47.052;15.458;2024-01-30T02:04:04;99478.25;;;-3.65;100.00
10470;BME280;5282;47.052;15.458;2024-01-30T02:06:31;99475.66;;;-3.68;100.00
10470;BME280;5282;47.052;15.458;2024-01-30T02:08:58;99475.94;;;-3.82;100.00
10470;BME280;5282;47.052;15.458;2024-01-30T02:11:25;99471.97;;;-4.05;100.00
10470;BME280;5282;47.052;15.458;2024-01-30T02:13:53;99471.09;;;-4.04;100.00
10470;BME280;5282;47.052;15.458;2024-01-30T02:16:19;99471.13;;;-4.07;100.00
10470;BME280;5282;47.052;15.458;2024-01-30T02:18:46;99471.88;;;-4.00;100.00
10470;BME280;5282;47.052;15.458;2024-01-30T02:21:15;99470.06;;;-3.95;100.00
10470;BME280;5282;47.052;15.458;2024-01-30T02:23:43;99476.97;;;-3.91;100.00
10470;BME280;5282;47.052;15.458;2024-01-30T02:26:10;99473.44;;;-3.88;100.00
10470;BME280;5282;47.052;15.458;2024-01-30T02:28:38;99474.66;;;-4.08;100.00
10470;BME280;5282;47.052;15.458;2024-01-30T02:31:05;99473.16;;;-4.21;100.00
10470;BME280;5282;47.052;15.458;2024-01-30T02:33:32;99474.94;;;-4.23;100.00
10470;BME280;5282;47.052;15.458;2024-01-30T02:36:00;99469.81;;;-4.31;100.00
10470;BME280;5282;47.052;15.458;2024-01-30T02:38:28;99464.47;;;-4.26;100.00
10470;BME280;5282;47.052;15.458;2024-01-30T02:40:55;99466.34;;;-4.31;100.00
10470;BME280;5282;47.052;15.458;2024-01-30T02:43:22;99467.19;;;-4.31;100.00
10470;BME280;5282;47.052;15.458;2024-01-30T02:45:49;99462.75;;;-4.27;100.00
10470;BME280;5282;47.052;15.458;2024-01-30T02:48:16;99472.25;;;-4.19;100.00
10470;BME280;5282;47.052;15.458;2024-01-30T02:50:44;99465.38;;;-4.26;100.00
10470;BME280;5282;47.052;15.458;2024-01-30T02:53:11;99467.19;;;-4.31;100.00
10470;BME280;5282;47.052;15.458;2024-01-30T02:55:39;99463.63;;;-4.28;100.00
10470;BME280;5282;47.052;15.458;2024-01-30T02:58:07;99469.84;;;-4.32;100.00
10470;BME280;5282;47.052;15.458;2024-01-30T03:00:34;99463.97;;;-4.47;100.00
10470;BME280;5282;47.052;15.458;2024-01-30T03:03:01;99464.03;;;-4.52;100.00
10470;BME280;5282;47.052;15.458;2024-01-30T03:05:29;99464.19;;;-4.62;100.00
10470;BME280;5282;47.052;15.458;2024-01-30T03:07:57;99466.84;;;-4.62;100.00
10470;BME280;5282;47.052;15.458;2024-01-30T03:10:24;99466.75;;;-4.56;100.00
10470;BME280;5282;47.052;15.458;2024-01-30T03:12:53;99452.59;;;-4.49;100.00
10470;BME280;5282;47.052;15.458;2024-01-30T03:15:20;99456.06;;;-4.47;100.00
10470;BME280;5282;47.052;15.458;2024-01-30T03:17:48;99452.72;;;-4.55;100.00
10470;BME280;5282;47.052;15.458;2024-01-30T03:20:18;99453.59;;;-4.56;100.00
10470;BME280;5282;47.052;15.458;2024-01-30T03:22:45;99457.13;;;-4.57;100.00
10470;BME280;5282;47.052;15.458;2024-01-30T03:25:17;99450.09;;;-4.57;100.00
10470;BME280;5282;47.052;15.458;2024-01-30T03:27:44;99443.91;;;-4.54;100.00
10470;BME280;5282;47.052;15.458;2024-01-30T03:30:14;99449.06;;;-4.48;100.00
10470;BME280;5282;47.052;15.458;2024-01-30T03:32:43;99444.59;;;-4.43;100.00
10470;BME280;5282;47.052;15.458;2024-01-30T03:35:10;99452.38;;;-4.37;100.00
10470;BME280;5282;47.052;15.458;2024-01-30T03:37:37;99448.06;;;-4.41;100.00
10470;BME280;5282;47.052;15.458;2024-01-30T03:40:05;99454.28;;;-4.45;100.00
10470;BME280;5282;47.052;15.458;2024-01-30T03:42:32;99445.34;;;-4.35;100.00
10470;BME280;5282;47.052;15.458;2024-01-30T03:44:59;99446.19;;;-4.32;100.00
10470;BME280;5282;47.052;15.458;2024-01-30T03:47:27;99446.38;;;-4.43;100.00
10470;BME280;5282;47.052;15.458;2024-01-30T03:49:54;99448.19;;;-4.47;100.00
10470;BME280;5282;47.052;15.458;2024-01-30T03:52:21;99450.03;;;-4.54;100.00
10470;BME280;5282;47.052;15.458;2024-01-30T03:54:48;99453.66;;;-4.59;100.00
10470;BME280;5282;47.052;15.458;2024-01-30T03:57:15;99445.59;;;-4.50;100.00
10470;BME280;5282;47.052;15.458;2024-01-30T03:59:42;99449.25;;;-4.57;100.00
10470;BME280;5282;47.052;15.458;2024-01-30T04:02:10;99449.13;;;-4.50;100.00
10470;BME280;5282;47.052;15.458;2024-01-30T04:04:38;99449.13;;;-4.51;100.00
10470;BME280;5282;47.052;15.458;2024-01-30T04:07:05;99450.97;;;-4.56;100.00
10470;BME280;5282;47.052;15.458;2024-01-30T04:09:33;99452.84;;;-4.63;100.00
10470;BME280;5282;47.052;15.458;2024-01-30T04:12:00;99449.28;;;-4.60;100.00
10470;BME280;5282;47.052;15.458;2024-01-30T04:14:28;99454.69;;;-4.70;100.00
10470;BME280;5282;47.052;15.458;2024-01-30T04:16:55;99456.59;;;-4.78;100.00
10470;BME280;5282;47.052;15.458;2024-01-30T04:19:22;99454.97;;;-4.87;100.00
10470;BME280;5282;47.052;15.458;2024-01-30T04:21:51;99455.06;;;-4.94;100.00
10470;BME280;5282;47.052;15.458;2024-01-30T04:24:18;99456.00;;;-4.97;100.00
10470;BME280;5282;47.052;15.458;2024-01-30T04:26:44;99448.97;;;-4.95;100.00
10470;BME280;5282;47.052;15.458;2024-01-30T04:29:11;99454.22;;;-4.95;100.00
10470;BME280;5282;47.052;15.458;2024-01-30T04:31:38;99453.19;;;-4.86;100.00
10470;BME280;5282;47.052;15.458;2024-01-30T04:34:05;99463.66;;;-4.83;100.00
10470;BME280;5282;47.052;15.458;2024-01-30T04:36:32;99449.66;;;-4.85;100.00
10470;BME280;5282;47.052;15.458;2024-01-30T04:39:00;99453.03;;;-4.77;100.00
10470;BME280;5282;47.052;15.458;2024-01-30T04:41:27;99452.16;;;-4.74;100.00
10470;BME280;5282;47.052;15.458;2024-01-30T04:43:57;99449.53;;;-4.76;100.00
10470;BME280;5282;47.052;15.458;2024-01-30T04:46:23;99453.03;;;-4.75;100.00
10470;BME280;5282;47.052;15.458;2024-01-30T04:48:50;99454.69;;;-4.70;100.00
10470;BME280;5282;47.052;15.458;2024-01-30T04:51:17;99452.03;;;-4.67;100.00
10470;BME280;5282;47.052;15.458;2024-01-30T04:53:44;99452.06;;;-4.71;100.00
10470;BME280;5282;47.052;15.458;2024-01-30T04:56:12;99453.09;;;-4.80;100.00
10470;BME280;5282;47.052;15.458;2024-01-30T04:58:39;99447.84;;;-4.82;100.00
10470;BME280;5282;47.052;15.458;2024-01-30T05:01:06;99446.94;;;-4.77;100.00
10470;BME280;5282;47.052;15.458;2024-01-30T05:03:35;99453.03;;;-4.77;100.00
10470;BME280;5282;47.052;15.458;2024-01-30T05:06:02;99450.38;;;-4.72;100.00
10470;BME280;5282;47.052;15.458;2024-01-30T05:08:29;99452.06;;;-4.70;100.00
10470;BME280;5282;47.052;15.458;2024-01-30T05:10:56;99446.81;;;-4.70;100.00
10470;BME280;5282;47.052;15.458;2024-01-30T05:13:27;99454.78;;;-4.76;100.00
10470;BME280;5282;47.052;15.458;2024-01-30T05:15:54;99453.97;;;-4.78;100.00
10470;BME280;5282;47.052;15.458;2024-01-30T05:18:21;99458.28;;;-4.77;100.00
10470;BME280;5282;47.052;15.458;2024-01-30T05:20:49;99469.72;;;-4.78;100.00
10470;BME280;5282;47.052;15.458;2024-01-30T05:23:16;99467.28;;;-4.90;100.00
10470;BME280;5282;47.052;15.458;2024-01-30T05:25:43;99471.75;;;-4.99;100.00
10470;BME280;5282;47.052;15.458;2024-01-30T05:28:10;99461.38;;;-5.05;100.00
10470;BME280;5282;47.052;15.458;2024-01-30T05:30:38;99457.91;;;-5.10;100.00
10470;BME280;5282;47.052;15.458;2024-01-30T05:33:05;99465.88;;;-5.13;100.00
10470;BME280;5282;47.052;15.458;2024-01-30T05:35:32;99464.06;;;-5.11;100.00
10470;BME280;5282;47.052;15.458;2024-01-30T05:37:59;99473.75;;;-5.13;100.00
10470;BME280;5282;47.052;15.458;2024-01-30T05:40:25;99477.19;;;-5.09;100.00
10470;BME280;5282;47.052;15.458;2024-01-30T05:42:52;99466.75;;;-5.14;100.00
10470;BME280;5282;47.052;15.458;2024-01-30T05:45:19;99467.78;;;-5.24;100.00
10470;BME280;5282;47.052;15.458;2024-01-30T05:47:49;99467.78;;;-5.26;100.00
10470;BME280;5282;47.052;15.458;2024-01-30T05:50:16;99477.25;;;-5.16;100.00
10470;BME280;5282;47.052;15.458;2024-01-30T05:52:43;99472.00;;;-5.14;100.00
10470;BME280;5282;47.052;15.458;2024-01-30T05:55:10;99464.16;;;-5.17;100.00
10470;BME280;5282;47.052;15.458;2024-01-30T05:57:37;99465.88;;;-5.13;100.00
10470;BME280;5282;47.052;15.458;2024-01-30T06:00:05;99468.47;;;-5.12;100.00
10470;BME280;5282;47.052;15.458;2024-01-30T06:02:33;99464.91;;;-5.07;100.00
10470;BME280;5282;47.052;15.458;2024-01-30T06:05:01;99466.72;;;-5.13;100.00
10470;BME280;5282;47.052;15.458;2024-01-30T06:07:28;99460.53;;;-5.08;100.00
10470;BME280;5282;47.052;15.458;2024-01-30T06:09:54;99462.28;;;-5.09;100.00
10470;BME280;5282;47.052;15.458;2024-01-30T06:12:21;99463.94;;;-5.02;100.00
10470;BME280;5282;47.052;15.458;2024-01-30T06:14:48;99462.16;;;-5.00;100.00
10470;BME280;5282;47.052;15.458;2024-01-30T06:17:15;99463.00;;;-4.98;100.00
10470;BME280;5282;47.052;15.458;2024-01-30T06:19:42;99476.38;;;-5.13;100.00
10470;BME280;5282;47.052;15.458;2024-01-30T06:22:10;99468.59;;;-5.22;100.00
10470;BME280;5282;47.052;15.458;2024-01-30T06:24:37;99465.00;;;-5.15;100.00
10470;BME280;5282;47.052;15.458;2024-01-30T06:27:04;99458.06;;;-5.19;100.00
10470;BME280;5282;47.052;15.458;2024-01-30T06:29:31;99465.09;;;-5.21;100.00
10470;BME280;5282;47.052;15.458;2024-01-30T06:32:00;99459.72;;;-5.12;100.00
10470;BME280;5282;47.052;15.458;2024-01-30T06:34:27;99461.25;;;-4.99;100.00
10470;BME280;5282;47.052;15.458;2024-01-30T06:36:54;99461.31;;;-5.02;100.00
10470;BME280;5282;47.052;15.458;2024-01-30T06:39:22;99465.88;;;-5.13;100.00
10470;BME280;5282;47.052;15.458;2024-01-30T06:41:50;99462.28;;;-5.09;100.00
10470;BME280;5282;47.052;15.458;2024-01-30T06:44:17;99469.25;;;-5.05;100.00
10470;BME280;5282;47.052;15.458;2024-01-30T06:46:44;99463.81;;;-4.94;100.00
10470;BME280;5282;47.052;15.458;2024-01-30T06:49:12;99464.72;;;-4.97;100.00
10470;BME280;5282;47.052;15.458;2024-01-30T06:51:38;99463.78;;;-4.89;100.00
10470;BME280;5282;47.052;15.458;2024-01-30T06:54:05;99468.91;;;-4.83;100.00
10470;BME280;5282;47.052;15.458;2024-01-30T06:56:33;99471.44;;;-4.77;100.00
10470;BME280;5282;47.052;15.458;2024-01-30T06:59:01;99468.09;;;-4.87;100.00
10470;BME280;5282;47.052;15.458;2024-01-30T07:01:28;99474.19;;;-4.83;100.00
10470;BME280;5282;47.052;15.458;2024-01-30T07:03:56;99476.66;;;-4.74;100.00
10470;BME280;5282;47.052;15.458;2024-01-30T07:06:23;99475.69;;;-4.67;100.00
10470;BME280;5282;47.052;15.458;2024-01-30T07:08:50;99472.97;;;-4.62;100.00
10470;BME280;5282;47.052;15.458;2024-01-30T07:11:21;99479.91;;;-4.56;100.00
10470;BME280;5282;47.052;15.458;2024-01-30T07:13:51;99473.59;;;-4.47;100.00
10470;BME280;5282;47.052;15.458;2024-01-30T07:16:18;99472.69;;;-4.46;100.00
10470;BME280;5282;47.052;15.458;2024-01-30T07:18:45;99479.75;;;-4.47;100.00
10470;BME280;5282;47.052;15.458;2024-01-30T07:21:12;99471.69;;;-4.38;100.00
10470;BME280;5282;47.052;15.458;2024-01-30T07:23:38;99477.59;;;-4.23;100.00
10470;BME280;5282;47.052;15.458;2024-01-30T07:26:07;99480.97;;;-4.18;100.00
10470;BME280;5282;47.052;15.458;2024-01-30T07:28:34;99484.47;;;-4.14;100.00
10470;BME280;5282;47.052;15.458;2024-01-30T07:31:03;99490.56;;;-4.14;100.00
10470;BME280;5282;47.052;15.458;2024-01-30T07:33:30;99493.88;;;-4.03;100.00
10470;BME280;5282;47.052;15.458;2024-01-30T07:35:57;99493.66;;;-3.90;100.00
10470;BME280;5282;47.052;15.458;2024-01-30T07:38:24;99485.56;;;-3.81;100.00
10470;BME280;5282;47.052;15.458;2024-01-30T07:40:50;99488.16;;;-3.79;100.00
10470;BME280;5282;47.052;15.458;2024-01-30T07:43:17;99495.16;;;-3.77;100.00
10470;BME280;5282;47.052;15.458;2024-01-30T07:45:45;99497.72;;;-3.74;100.00
10470;BME280;5282;47.052;15.458;2024-01-30T07:48:14;99502.78;;;-3.63;100.00
10470;BME280;5282;47.052;15.458;2024-01-30T07:50:41;99493.94;;;-3.59;100.00
10470;BME280;5282;47.052;15.458;2024-01-30T07:53:07;99490.31;;;-3.54;100.00
10470;BME280;5282;47.052;15.458;2024-01-30T07:55:46;99492.09;;;-3.57;100.00
10470;BME280;5282;47.052;15.458;2024-01-30T07:58:13;99484.38;;;-3.64;100.00
10470;BME280;5282;47.052;15.458;2024-01-30T08:00:40;99486.13;;;-3.65;100.00
10470;BME280;5282;47.052;15.458;2024-01-30T08:03:07;99489.56;;;-3.61;100.00
10470;BME280;5282;47.052;15.458;2024-01-30T08:05:35;99484.19;;;-3.55;100.00
10470;BME280;5282;47.052;15.458;2024-01-30T08:08:03;99483.81;;;-3.36;100.00
10470;BME280;5282;47.052;15.458;2024-01-30T08:10:30;99487.72;;;-3.14;100.00
10470;BME280;5282;47.052;15.458;2024-01-30T08:12:57;99482.94;;;-2.96;100.00
10470;BME280;5282;47.052;15.458;2024-01-30T08:15:24;99491.31;;;-2.77;100.00
10470;BME280;5282;47.052;15.458;2024-01-30T08:17:51;99494.72;;;-2.73;100.00
10470;BME280;5282;47.052;15.458;2024-01-30T08:20:21;99500.56;;;-2.60;100.00
10470;BME280;5282;47.052;15.458;2024-01-30T08:22:50;99501.91;;;-2.42;100.00
10470;BME280;5282;47.052;15.458;2024-01-30T08:25:16;99506.09;;;-2.34;100.00
10470;BME280;5282;47.052;15.458;2024-01-30T08:27:43;99497.09;;;-2.25;100.00
10470;BME280;5282;47.052;15.458;2024-01-30T08:30:11;99492.63;;;-2.23;100.00
10470;BME280;5282;47.052;15.458;2024-01-30T08:32:38;99499.50;;;-2.17;100.00
10470;BME280;5282;47.052;15.458;2024-01-30T08:35:05;99495.09;;;-2.17;100.00
10470;BME280;5282;47.052;15.458;2024-01-30T08:37:32;99486.75;;;-2.34;100.00
10470;BME280;5282;47.052;15.458;2024-01-30T08:40:00;99484.78;;;-2.26;100.00
10470;BME280;5282;47.052;15.458;2024-01-30T08:42:27;99491.47;;;-2.12;100.00
10470;BME280;5282;47.052;15.458;2024-01-30T08:44:54;99486.44;;;-1.89;100.00
10470;BME280;5282;47.052;15.458;2024-01-30T08:47:21;99477.78;;;-1.61;100.00
10470;BME280;5282;47.052;15.458;2024-01-30T08:49:48;99471.41;;;-1.53;100.00
10470;BME280;5282;47.052;15.458;2024-01-30T08:52:15;99476.31;;;-1.40;100.00
10470;BME280;5282;47.052;15.458;2024-01-30T08:54:42;99478.19;;;-1.45;100.00
10470;BME280;5282;47.052;15.458;2024-01-30T08:57:10;99471.31;;;-1.20;100.00
10470;BME280;5282;47.052;15.458;2024-01-30T08:59:37;99471.91;;;-1.11;100.00
10470;BME280;5282;47.052;15.458;2024-01-30T09:02:05;99467.69;;;-0.88;100.00
10470;BME280;5282;47.052;15.458;2024-01-30T09:04:32;99467.50;;;-0.53;100.00
10470;BME280;5282;47.052;15.458;2024-01-30T09:06:59;99465.13;;;-0.36;100.00
10470;BME280;5282;47.052;15.458;2024-01-30T09:09:26;99466.97;;;-0.11;100.00
10470;BME280;5282;47.052;15.458;2024-01-30T09:11:53;99461.50;;;0.19;100.00
10470;BME280;5282;47.052;15.458;2024-01-30T09:14:21;99462.34;;;0.45;100.00
10470;BME280;5282;47.052;15.458;2024-01-30T09:16:48;99462.28;;;0.23;100.00
10470;BME280;5282;47.052;15.458;2024-01-30T09:19:15;99465.06;;;0.18;100.00
10470;BME280;5282;47.052;15.458;2024-01-30T09:21:42;99461.66;;;0.64;100.00
10470;BME280;5282;47.052;15.458;2024-01-30T09:24:09;99456.41;;;0.86;100.00
10470;BME280;5282;47.052;15.458;2024-01-30T09:26:36;99456.59;;;0.57;100.00
10470;BME280;5282;47.052;15.458;2024-01-30T09:29:03;99458.03;;;0.42;100.00
10470;BME280;5282;47.052;15.458;2024-01-30T09:31:31;99462.00;;;0.54;100.00
10470;BME280;5282;47.052;15.458;2024-01-30T09:33:58;99463.50;;;0.61;100.00
10470;BME280;5282;47.052;15.458;2024-01-30T09:36:25;99460.53;;;0.69;100.00
10470;BME280;5282;47.052;15.458;2024-01-30T09:38:51;99458.78;;;0.70;100.00
10470;BME280;5282;47.052;15.458;2024-01-30T09:41:19;99454.03;;;0.78;100.00
10470;BME280;5282;47.052;15.458;2024-01-30T09:43:48;99456.81;;;1.21;100.00
10470;BME280;5282;47.052;15.458;2024-01-30T09:46:16;99447.56;;;1.74;100.00
10470;BME280;5282;47.052;15.458;2024-01-30T09:48:46;99448.38;;;2.18;100.00
10470;BME280;5282;47.052;15.458;2024-01-30T09:51:14;99454.09;;;1.88;100.00
10470;BME280;5282;47.052;15.458;2024-01-30T09:53:42;99447.91;;;2.47;100.00
10470;BME280;5282;47.052;15.458;2024-01-30T09:56:09;99440.13;;;2.83;100.00
10470;BME280;5282;47.052;15.458;2024-01-30T09:58:36;99437.44;;;2.83;100.00
10470;BME280;5282;47.052;15.458;2024-01-30T10:01:05;99437.44;;;3.21;100.00
10470;BME280;5282;47.052;15.458;2024-01-30T10:03:32;99436.94;;;3.32;100.00
10470;BME280;5282;47.052;15.458;2024-01-30T10:06:01;99430.25;;;3.77;100.00
10470;BME280;5282;47.052;15.458;2024-01-30T10:08:28;99428.09;;;4.19;100.00
10470;BME280;5282;47.052;15.458;2024-01-30T10:10:55;99424.44;;;4.38;98.59
10470;BME280;5282;47.052;15.458;2024-01-30T10:13:22;99426.59;;;4.31;96.90
10470;BME280;5282;47.052;15.458;2024-01-30T10:15:49;99421.31;;;4.63;97.48
10470;BME280;5282;47.052;15.458;2024-01-30T10:18:16;99424.53;;;5.02;90.83
10470;BME280;5282;47.052;15.458;2024-01-30T10:20:43;99417.03;;;5.08;86.31
10470;BME280;5282;47.052;15.458;2024-01-30T10:23:12;99415.50;;;5.04;81.71
10470;BME280;5282;47.052;15.458;2024-01-30T10:25:39;99413.31;;;4.63;81.10
10470;BME280;5282;47.052;15.458;2024-01-30T10:28:06;99416.72;;;4.99;79.81
10470;BME280;5282;47.052;15.458;2024-01-30T10:30:33;99409.38;;;5.18;81.86
10470;BME280;5282;47.052;15.458;2024-01-30T10:32:59;99400.41;;;5.66;77.74
10470;BME280;5282;47.052;15.458;2024-01-30T10:35:26;99396.00;;;5.34;75.19
10470;BME280;5282;47.052;15.458;2024-01-30T10:37:56;99395.13;;;5.95;75.68
10470;BME280;5282;47.052;15.458;2024-01-30T10:40:27;99399.66;;;4.85;76.78
10470;BME280;5282;47.052;15.458;2024-01-30T10:42:55;99392.63;;;5.77;79.40
10470;BME280;5282;47.052;15.458;2024-01-30T10:45:23;99388.91;;;6.10;73.54
10470;BME280;5282;47.052;15.458;2024-01-30T10:47:54;99383.88;;;5.59;70.02
10470;BME280;5282;47.052;15.458;2024-01-30T10:50:24;99378.97;;;5.82;77.49
10470;BME280;5282;47.052;15.458;2024-01-30T10:52:52;99371.78;;;6.13;69.16
10470;BME280;5282;47.052;15.458;2024-01-30T10:55:21;99371.72;;;6.43;70.20
10470;BME280;5282;47.052;15.458;2024-01-30T10:57:50;99370.28;;;6.38;68.50
10470;BME280;5282;47.052;15.458;2024-01-30T11:00:18;99364.44;;;7.02;66.09
10470;BME280;5282;47.052;15.458;2024-01-30T11:02:49;99357.91;;;6.78;64.88
10470;BME280;5282;47.052;15.458;2024-01-30T11:05:23;99354.41;;;7.05;65.57
10470;BME280;5282;47.052;15.458;2024-01-30T11:07:52;99346.38;;;7.46;61.68
10470;BME280;5282;47.052;15.458;2024-01-30T11:10:19;99341.22;;;7.43;62.93
10470;BME280;5282;47.052;15.458;2024-01-30T11:12:46;99345.97;;;7.52;61.03
10470;BME280;5282;47.052;15.458;2024-01-30T11:15:15;99332.91;;;7.60;60.18
10470;BME280;5282;47.052;15.458;2024-01-30T11:17:50;99338.31;;;6.78;60.04
10470;BME280;5282;47.052;15.458;2024-01-30T11:20:20;99335.94;;;7.28;61.38
10470;BME280;5282;47.052;15.458;2024-01-30T11:22:49;99330.34;;;7.31;60.62
10470;BME280;5282;47.052;15.458;2024-01-30T11:25:18;99333.34;;;7.80;59.00
10470;BME280;5282;47.052;15.458;2024-01-30T11:27:46;99329.78;;;7.53;57.91
10470;BME280;5282;47.052;15.458;2024-01-30T11:30:23;99323.03;;;7.48;58.55
10470;BME280;5282;47.052;15.458;2024-01-30T11:33:00;99321.66;;;7.81;58.18
10470;BME280;5282;47.052;15.458;2024-01-30T11:35:32;99321.78;;;7.92;57.45
10470;BME280;5282;47.052;15.458;2024-01-30T11:38:00;99317.03;;;7.57;57.70
10470;BME280;5282;47.052;15.458;2024-01-30T11:40:27;99320.63;;;7.96;57.08
10470;BME280;5282;47.052;15.458;2024-01-30T11:42:55;99320.00;;;7.39;58.01
10470;BME280;5282;47.052;15.458;2024-01-30T11:45:23;99313.50;;;7.69;58.01
10470;BME280;5282;47.052;15.458;2024-01-30T11:47:50;99309.97;;;8.08;58.26
10470;BME280;5282;47.052;15.458;2024-01-30T11:50:17;99310.88;;;7.29;56.73
10470;BME280;5282;47.052;15.458;2024-01-30T11:52:43;99308.56;;;7.89;57.31
10470;BME280;5282;47.052;15.458;2024-01-30T11:55:11;99302.03;;;8.19;56.10
10470;BME280;5282;47.052;15.458;2024-01-30T11:57:39;99302.13;;;8.17;55.28
10470;BME280;5282;47.052;15.458;2024-01-30T12:00:06;99298.16;;;8.23;54.88
10470;BME280;5282;47.052;15.458;2024-01-30T12:02:42;99295.38;;;8.25;54.81
10470;BME280;5282;47.052;15.458;2024-01-30T12:05:09;99295.56;;;8.34;54.29
10470;BME280;5282;47.052;15.458;2024-01-30T12:07:37;99293.97;;;8.19;54.96
10470;BME280;5282;47.052;15.458;2024-01-30T12:10:04;99295.13;;;7.50;54.60
10470;BME280;5282;47.052;15.458;2024-01-30T12:12:33;99287.22;;;7.49;55.92
10470;BME280;5282;47.052;15.458;2024-01-30T12:15:01;99287.44;;;7.84;56.23
10470;BME280;5282;47.052;15.458;2024-01-30T12:17:30;99285.63;;;7.98;56.56
10470;BME280;5282;47.052;15.458;2024-01-30T12:20:05;99278.41;;;7.34;56.04
10470;BME280;5282;47.052;15.458;2024-01-30T12:22:35;99272.44;;;8.08;55.51
10470;BME280;5282;47.052;15.458;2024-01-30T12:25:04;99274.56;;;7.51;53.93
10470;BME280;5282;47.052;15.458;2024-01-30T12:27:32;99277.88;;;7.41;55.59
10470;BME280;5282;47.052;15.458;2024-01-30T12:29:58;99273.28;;;7.69;56.02
10470;BME280;5282;47.052;15.458;2024-01-30T12:32:25;99272.47;;;7.16;56.79
10470;BME280;5282;47.052;15.458;2024-01-30T12:34:55;99274.50;;;6.85;57.46
10470;BME280;5282;47.052;15.458;2024-01-30T12:37:24;99282.31;;;6.60;59.24
10470;BME280;5282;47.052;15.458;2024-01-30T12:39:52;99267.25;;;7.27;58.38
10470;BME280;5282;47.052;15.458;2024-01-30T12:42:20;99270.94;;;7.52;56.33
10470;BME280;5282;47.052;15.458;2024-01-30T12:44:48;99261.59;;;7.70;56.11
10470;BME280;5282;47.052;15.458;2024-01-30T12:47:15;99259.69;;;7.98;54.82
10470;BME280;5282;47.052;15.458;2024-01-30T12:49:42;99252.56;;;8.10;55.81
10470;BME280;5282;47.052;15.458;2024-01-30T12:52:10;99258.50;;;7.64;54.77
10470;BME280;5282;47.052;15.458;2024-01-30T12:54:38;99248.41;;;7.93;56.34
10470;BME280;5282;47.052;15.458;2024-01-30T12:57:05;99251.84;;;7.56;57.24